Time;durP1;ratioP1;P1;durP2;ratioP2;P2;SDS_P1;SDS_P2;PMS_P1;PMS_P2;Temp;Humidity;BMP_temperature;BMP_pressure;BME280_temperature;BME280_humidity;BME280_pressure;Samples;Min_cycle;Max_cycle;Signal;HPM_P1;HPM_P2
2023/10/16 00:01:15;;;;;;;;;;;10.80;99.90;;;;;;4916511;29;20374;-71
2023/10/16 00:03:41;;;;;;;;;;;10.70;99.90;;;;;;4916615;29;19910;-76
2023/10/16 00:06:07;;;;;;;;;;;10.70;99.90;;;;;;4916929;29;19907;-71
2023/10/16 00:08:36;;;;;;;;;;;10.60;99.90;;;;;;4916185;29;19907;-76
2023/10/16 00:11:05;;;;;;;;;;;10.60;99.90;;;;;;4914693;29;19907;-76
2023/10/16 00:13:32;;;;;;;;;;;10.60;99.90;;;;;;4897857;29;19951;-72
2023/10/16 00:15:59;;;;;;;;;;;10.60;99.90;;;;;;4880747;29;19963;-71
2023/10/16 00:18:31;;;;;;;;;;;10.50;99.90;;;;;;4897861;29;19932;-76
2023/10/16 00:20:56;;;;;;;;;;;10.50;99.90;;;;;;4897531;29;19915;-76
2023/10/16 00:23:25;;;;;;;;;;;10.50;99.90;;;;;;4899479;29;19946;-76
2023/10/16 00:25:51;;;;;;;;;;;10.50;99.90;;;;;;4901018;29;19907;-72
2023/10/16 00:28:22;;;;;;;;;;;10.40;99.90;;;;;;4883968;29;19911;-71
2023/10/16 00:30:49;;;;;;;;;;;10.40;99.90;;;;;;4901053;29;20006;-71
2023/10/16 00:33:14;;;;;;;;;;;10.40;99.90;;;;;;4900869;29;20290;-76
2023/10/16 00:35:41;;;;;;;;;;;10.40;99.90;;;;;;4901227;29;19907;-76
2023/10/16 00:38:13;;;;;;;;;;;10.40;99.90;;;;;;4900644;29;20268;-71
2023/10/16 00:40:51;;;;;;;;;;;10.30;99.90;;;;;;4900770;29;19915;-72
2023/10/16 00:43:20;;;;;;;;;;;10.20;99.90;;;;;;4900497;29;19918;-76
2023/10/16 00:45:50;;;;;;;;;;;10.10;99.90;;;;;;4911523;29;19923;-76
2023/10/16 00:48:17;;;;;;;;;;;10.10;99.90;;;;;;4919754;29;19907;-76
2023/10/16 00:50:48;;;;;;;;;;;10.10;99.90;;;;;;4924633;29;19917;-71
2023/10/16 00:53:20;;;;;;;;;;;10.10;99.90;;;;;;4936835;29;20457;-76
2023/10/16 00:55:47;;;;;;;;;;;10.10;99.90;;;;;;4937685;29;19911;-76
2023/10/16 00:58:14;;;;;;;;;;;10.00;99.90;;;;;;4938384;29;19957;-76
2023/10/16 01:00:45;;;;;;;;;;;10.00;99.90;;;;;;4946212;29;20373;-76
2023/10/16 01:03:11;;;;;;;;;;;9.90;99.90;;;;;;4957304;29;19910;-73
2023/10/16 01:05:39;;;;;;;;;;;9.90;99.90;;;;;;4957165;29;20365;-72
2023/10/16 01:08:07;;;;;;;;;;;9.80;99.90;;;;;;4957366;29;19906;-71
2023/10/16 01:10:34;;;;;;;;;;;9.80;99.90;;;;;;4937972;29;19911;-72
2023/10/16 01:13:01;;;;;;;;;;;9.70;99.90;;;;;;4920705;29;20335;-76
2023/10/16 01:15:27;;;;;;;;;;;9.70;99.90;;;;;;4918627;29;19915;-71
2023/10/16 01:17:53;;;;;;;;;;;9.60;99.90;;;;;;4919138;29;19907;-71
2023/10/16 01:20:18;;;;;;;;;;;9.60;99.90;;;;;;4918986;29;20010;-71
2023/10/16 01:22:52;;;;;;;;;;;9.60;99.90;;;;;;4918741;29;19915;-76
2023/10/16 01:25:18;;;;;;;;;;;9.60;99.90;;;;;;4918807;29;20001;-76
2023/10/16 01:27:43;;;;;;;;;;;9.60;99.90;;;;;;4918854;29;19997;-76
2023/10/16 01:30:09;;;;;;;;;;;9.60;99.90;;;;;;4918931;29;19907;-71
2023/10/16 01:32:35;;;;;;;;;;;9.60;99.90;;;;;;4918699;29;19907;-72
2023/10/16 01:35:01;;;;;;;;;;;9.60;99.90;;;;;;4918446;29;19915;-76
2023/10/16 01:37:27;;;;;;;;;;;9.60;99.90;;;;;;4918687;29;20316;-76
2023/10/16 01:39:56;;;;;;;;;;;9.50;99.90;;;;;;4918599;29;19914;-72
2023/10/16 01:42:21;;;;;;;;;;;9.50;99.90;;;;;;4918725;29;19911;-71
2023/10/16 01:44:51;;;;;;;;;;;9.50;99.90;;;;;;4918621;29;19945;-71
2023/10/16 01:47:16;;;;;;;;;;;9.40;99.90;;;;;;4918121;29;19914;-76
2023/10/16 01:49:42;;;;;;;;;;;9.40;99.90;;;;;;4918513;29;19907;-76
2023/10/16 01:52:14;;;;;;;;;;;9.40;99.90;;;;;;4934425;29;19910;-76
2023/10/16 01:54:40;;;;;;;;;;;9.40;99.90;;;;;;4937278;29;20370;-76
2023/10/16 01:57:12;;;;;;;;;;;9.40;99.90;;;;;;4937121;29;19910;-76
2023/10/16 01:59:43;;;;;;;;;;;9.40;99.90;;;;;;4936797;29;19906;-71
2023/10/16 02:02:09;;;;;;;;;;;9.30;99.90;;;;;;4918028;29;19913;-71
2023/10/16 02:04:35;;;;;;;;;;;9.30;99.90;;;;;;4918141;29;20349;-77
2023/10/16 02:07:01;;;;;;;;;;;9.20;99.90;;;;;;4918299;29;19914;-76
2023/10/16 02:09:27;;;;;;;;;;;9.20;99.90;;;;;;4927560;29;20409;-71
2023/10/16 02:11:53;;;;;;;;;;;9.20;99.90;;;;;;4928475;29;19907;-71
2023/10/16 02:14:20;;;;;;;;;;;9.10;99.90;;;;;;4917888;29;19911;-77
2023/10/16 02:16:47;;;;;;;;;;;9.10;99.90;;;;;;4917817;29;19911;-76
2023/10/16 02:19:12;;;;;;;;;;;9.00;99.90;;;;;;4917720;29;19907;-76
2023/10/16 02:21:40;;;;;;;;;;;9.00;99.90;;;;;;4917776;29;20358;-71
2023/10/16 02:24:06;;;;;;;;;;;8.90;99.90;;;;;;4917847;29;19970;-71
2023/10/16 02:26:40;;;;;;;;;;;8.90;99.90;;;;;;4917746;29;20383;-71
2023/10/16 02:29:05;;;;;;;;;;;8.80;99.90;;;;;;4917955;29;20001;-76
2023/10/16 02:31:31;;;;;;;;;;;8.80;99.90;;;;;;4917600;29;20006;-71
2023/10/16 02:34:09;;;;;;;;;;;8.70;99.90;;;;;;4917598;29;19919;-76
2023/10/16 02:36:35;;;;;;;;;;;8.70;99.90;;;;;;4917729;29;19911;-72
2023/10/16 02:39:07;;;;;;;;;;;8.70;99.90;;;;;;4922646;29;20478;-76
2023/10/16 02:41:33;;;;;;;;;;;8.70;99.90;;;;;;4936291;29;19910;-76
2023/10/16 02:43:58;;;;;;;;;;;8.70;99.90;;;;;;4936172;29;19917;-76
2023/10/16 02:46:24;;;;;;;;;;;8.70;99.90;;;;;;4952197;28;19922;-71
2023/10/16 02:48:55;;;;;;;;;;;8.70;99.90;;;;;;4937198;29;19917;-76
2023/10/16 02:51:21;;;;;;;;;;;8.70;99.90;;;;;;4941901;29;19910;-71
2023/10/16 02:53:49;;;;;;;;;;;8.70;99.90;;;;;;4946840;29;20388;-76
2023/10/16 02:56:14;;;;;;;;;;;8.70;99.90;;;;;;4955308;29;20366;-75
2023/10/16 02:58:44;;;;;;;;;;;8.70;99.90;;;;;;4954728;29;19914;-76
2023/10/16 03:01:14;;;;;;;;;;;8.80;99.90;;;;;;4947756;29;19906;-76
2023/10/16 03:03:43;;;;;;;;;;;8.80;99.90;;;;;;4955173;29;19934;-71
2023/10/16 03:06:09;;;;;;;;;;;8.80;99.90;;;;;;4955453;29;20433;-76
2023/10/16 03:08:36;;;;;;;;;;;8.80;99.90;;;;;;4950704;29;19961;-76
2023/10/16 03:11:06;;;;;;;;;;;8.80;99.90;;;;;;4934047;29;20401;-76
2023/10/16 03:13:35;;;;;;;;;;;8.80;99.90;;;;;;4917219;29;19918;-72
2023/10/16 03:16:11;;;;;;;;;;;8.80;99.90;;;;;;4916749;29;19907;-71
2023/10/16 03:18:42;;;;;;;;;;;8.80;99.90;;;;;;4917539;29;19911;-76
2023/10/16 03:21:30;;;;;;;;;;;8.80;99.90;;;;;;4934795;29;19962;-76
2023/10/16 03:23:54;;;;;;;;;;;8.80;99.90;;;;;;4935826;29;19958;-76
2023/10/16 03:28:46;;;;;;;;;;;8.80;99.90;;;;;;4936259;29;19911;-72
2023/10/16 03:31:12;;;;;;;;;;;8.80;99.90;;;;;;4935836;29;19918;-71
2023/10/16 03:33:38;;;;;;;;;;;8.80;99.90;;;;;;4935836;29;19914;-76
2023/10/16 03:36:04;;;;;;;;;;;8.70;99.90;;;;;;4935112;29;19911;-76
2023/10/16 03:38:36;;;;;;;;;;;8.70;99.90;;;;;;4935821;29;19913;-76
2023/10/16 03:41:04;;;;;;;;;;;8.60;99.90;;;;;;4916815;29;19955;-72
2023/10/16 03:43:29;;;;;;;;;;;8.60;99.90;;;;;;4916993;29;19918;-71
2023/10/16 03:45:55;;;;;;;;;;;8.50;99.90;;;;;;4906472;29;20351;-76
2023/10/16 03:48:21;;;;;;;;;;;8.50;99.90;;;;;;4897946;29;19960;-76
2023/10/16 03:50:47;;;;;;;;;;;8.40;99.90;;;;;;4903189;29;19907;-76
2023/10/16 03:53:16;;;;;;;;;;;8.40;99.90;;;;;;4916343;29;19922;-71
2023/10/16 03:55:43;;;;;;;;;;;8.30;99.90;;;;;;4915945;29;20426;-71
2023/10/16 03:58:10;;;;;;;;;;;8.40;99.90;;;;;;4918355;29;19914;-76
2023/10/16 04:00:56;;;;;;;;;;;8.30;99.90;;;;;;4920301;29;19911;-71
2023/10/16 04:03:23;;;;;;;;;;;8.20;99.90;;;;;;4903264;29;20437;-76
2023/10/16 04:05:49;;;;;;;;;;;8.20;99.90;;;;;;4920375;29;19998;-71
2023/10/16 04:08:16;;;;;;;;;;;8.20;99.90;;;;;;4919913;29;20318;-72
2023/10/16 04:10:48;;;;;;;;;;;8.20;99.90;;;;;;4919951;29;20019;-76
2023/10/16 04:13:14;;;;;;;;;;;8.20;99.90;;;;;;4901060;29;19911;-76
2023/10/16 04:18:28;;;;;;;;;;;8.30;99.90;;;;;;4901438;29;19954;-76
2023/10/16 04:20:56;;;;;;;;;;;8.30;99.90;;;;;;4900986;29;20339;-71
2023/10/16 04:23:37;;;;;;;;;;;8.30;99.90;;;;;;4901137;29;20267;-76
2023/10/16 04:34:56;;;;;;;;;;;8.30;99.90;;;;;;4919999;29;19961;-71
2023/10/16 04:50:29;;;;;;;;;;;8.20;99.90;;;;;;4956077;29;19907;-76
2023/10/16 05:11:36;;;;;;;;;;;8.20;99.90;;;;;;4933454;29;19914;-71
2023/10/16 06:14:17;;;;;;;;;;;7.70;99.90;;;;;;4913810;29;19973;-76
2023/10/16 06:16:45;;;;;;;;;;;7.70;99.90;;;;;;4910455;29;19951;-71
2023/10/16 06:19:17;;;;;;;;;;;7.60;99.90;;;;;;4916613;29;19923;-71
2023/10/16 06:21:47;;;;;;;;;;;7.70;99.90;;;;;;4907549;29;19917;-71
2023/10/16 06:24:25;;;;;;;;;;;7.70;99.90;;;;;;4898576;29;20290;-76
2023/10/16 06:26:54;;;;;;;;;;;7.70;99.90;;;;;;4906883;29;20442;-72
2023/10/16 06:29:20;;;;;;;;;;;7.70;99.90;;;;;;4911901;29;19910;-71
2023/10/16 06:31:49;;;;;;;;;;;7.70;99.90;;;;;;4914400;29;19921;-76
2023/10/16 06:34:15;;;;;;;;;;;7.70;99.90;;;;;;4916518;29;19911;-76
2023/10/16 06:36:41;;;;;;;;;;;7.70;99.90;;;;;;4916088;29;19911;-71
2023/10/16 06:39:22;;;;;;;;;;;7.70;99.90;;;;;;4913915;29;19917;-76
2023/10/16 06:41:54;;;;;;;;;;;7.70;99.90;;;;;;4900540;29;19915;-72
2023/10/16 06:44:21;;;;;;;;;;;7.70;99.90;;;;;;4907070;29;19915;-71
2023/10/16 06:46:49;;;;;;;;;;;7.70;99.90;;;;;;4912748;29;20297;-76
2023/10/16 06:49:15;;;;;;;;;;;7.80;99.90;;;;;;4910066;29;19922;-76
2023/10/16 06:51:43;;;;;;;;;;;7.80;99.90;;;;;;4918383;29;19911;-76
2023/10/16 06:54:10;;;;;;;;;;;7.80;99.90;;;;;;4914895;29;20014;-76
2023/10/16 06:56:38;;;;;;;;;;;7.90;99.90;;;;;;4904238;29;19911;-71
2023/10/16 06:59:04;;;;;;;;;;;8.00;99.90;;;;;;4910920;29;19918;-71
2023/10/16 07:01:29;;;;;;;;;;;8.00;99.90;;;;;;4912954;29;19907;-76
2023/10/16 07:03:55;;;;;;;;;;;8.10;99.90;;;;;;4918077;29;20027;-76
2023/10/16 07:06:29;;;;;;;;;;;8.10;99.90;;;;;;4919444;29;19978;-76
2023/10/16 07:08:55;;;;;;;;;;;8.10;99.90;;;;;;4922352;29;19914;-71
2023/10/16 07:11:21;;;;;;;;;;;8.20;99.90;;;;;;4909122;29;19915;-71
2023/10/16 07:13:47;;;;;;;;;;;8.20;99.90;;;;;;4909659;29;19997;-76
2023/10/16 07:16:15;;;;;;;;;;;8.20;99.90;;;;;;4910065;29;20298;-72
2023/10/16 07:18:43;;;;;;;;;;;8.20;99.90;;;;;;4904270;29;19915;-76
2023/10/16 07:21:09;;;;;;;;;;;8.20;99.90;;;;;;4908346;29;20355;-72
2023/10/16 07:23:36;;;;;;;;;;;8.10;99.90;;;;;;4907793;29;19922;-71
2023/10/16 07:26:02;;;;;;;;;;;8.10;99.90;;;;;;4895742;29;19911;-76
2023/10/16 07:28:28;;;;;;;;;;;8.20;99.90;;;;;;4895383;29;19916;-76
2023/10/16 07:30:58;;;;;;;;;;;8.20;99.90;;;;;;4909051;29;19925;-76
2023/10/16 07:33:24;;;;;;;;;;;8.40;99.90;;;;;;4917468;29;19915;-71
2023/10/16 07:35:51;;;;;;;;;;;8.70;99.90;;;;;;4904968;29;19918;-72
2023/10/16 07:38:19;;;;;;;;;;;9.20;99.90;;;;;;4908138;29;19910;-72
2023/10/16 07:40:45;;;;;;;;;;;10.00;99.90;;;;;;4907236;29;19963;-76
2023/10/16 07:43:10;;;;;;;;;;;10.10;99.90;;;;;;4898600;29;19911;-72
2023/10/16 07:45:37;;;;;;;;;;;10.90;99.90;;;;;;4899233;29;19935;-77
2023/10/16 07:48:20;;;;;;;;;;;10.80;99.90;;;;;;4917346;29;20434;-72
2023/10/16 07:50:47;;;;;;;;;;;10.20;99.90;;;;;;4916690;29;19911;-71
2023/10/16 07:53:17;;;;;;;;;;;10.00;99.90;;;;;;4915096;29;19931;-78
2023/10/16 07:55:51;;;;;;;;;;;10.20;99.90;;;;;;4900518;29;19916;-76
2023/10/16 07:58:23;;;;;;;;;;;10.00;99.90;;;;;;4910829;29;19923;-76
2023/10/16 08:01:32;;;;;;;;;;;10.10;99.90;;;;;;4904124;29;20050;-72
2023/10/16 08:03:46;;;;;;;;;;;10.20;99.90;;;;;;4913031;29;19911;-72
2023/10/16 08:06:16;;;;;;;;;;;10.40;99.90;;;;;;4917507;29;20351;-76
2023/10/16 08:09:29;;;;;;;;;;;10.50;99.90;;;;;;4913127;29;20243;-72
2023/10/16 08:11:46;;;;;;;;;;;10.70;99.90;;;;;;4907552;29;19918;-76
2023/10/16 08:14:13;;;;;;;;;;;10.80;99.90;;;;;;4909354;29;19916;-73
2023/10/16 08:16:38;;;;;;;;;;;11.10;99.90;;;;;;4906757;29;19912;-72
2023/10/16 08:19:26;;;;;;;;;;;11.30;99.90;;;;;;4910423;29;19955;-73
2023/10/16 08:21:54;;;;;;;;;;;12.00;99.90;;;;;;4897570;29;19918;-76
2023/10/16 08:24:21;;;;;;;;;;;12.60;99.90;;;;;;4903433;29;19918;-77
2023/10/16 08:26:48;;;;;;;;;;;13.60;99.90;;;;;;4912360;29;19926;-72
2023/10/16 08:31:42;;;;;;;;;;;13.20;99.90;;;;;;4913926;29;20268;-77
2023/10/16 08:34:09;;;;;;;;;;;13.10;99.90;;;;;;4912338;29;19914;-77
2023/10/16 08:36:35;;;;;;;;;;;13.20;99.90;;;;;;4903653;29;19922;-72
2023/10/16 08:39:10;;;;;;;;;;;13.20;99.90;;;;;;4908558;29;20331;-72
2023/10/16 08:41:42;;;;;;;;;;;13.80;99.90;;;;;;4902953;29;19969;-72
2023/10/16 08:44:24;;;;;;;;;;;15.50;99.90;;;;;;4911317;29;19914;-73
2023/10/16 08:49:25;;;;;;;;;;;17.80;99.90;;;;;;4936143;29;19914;-77
2023/10/16 08:51:52;;;;;;;;;;;18.60;99.90;;;;;;4938819;29;20325;-75
2023/10/16 08:57:03;;;;;;;;;;;16.60;99.90;;;;;;4938186;29;19922;-78
2023/10/16 08:59:30;;;;;;;;;;;16.90;99.90;;;;;;4926411;29;19915;-78
2023/10/16 09:01:57;;;;;;;;;;;18.60;99.90;;;;;;4925885;29;19921;-78
2023/10/16 09:04:26;;;;;;;;;;;19.50;99.90;;;;;;4943530;29;20013;-75
2023/10/16 09:06:52;;;;;;;;;;;20.10;98.80;;;;;;4932164;29;19993;-75
2023/10/16 09:09:18;;;;;;;;;;;20.10;98.70;;;;;;4928767;29;20021;-75
2023/10/16 09:11:44;;;;;;;;;;;20.30;97.70;;;;;;4936417;29;19993;-78
2023/10/16 09:14:20;;;;;;;;;;;20.80;97.40;;;;;;4939787;29;19924;-78
2023/10/16 09:16:47;;;;;;;;;;;21.00;96.70;;;;;;4934674;29;19914;-78
2023/10/16 09:19:15;;;;;;;;;;;20.10;97.10;;;;;;4930814;29;20416;-74
2023/10/16 09:21:43;;;;;;;;;;;18.60;99.10;;;;;;4923972;29;19922;-78
2023/10/16 09:24:11;;;;;;;;;;;17.90;99.90;;;;;;4927865;29;19921;-78
2023/10/16 09:26:44;;;;;;;;;;;17.50;99.90;;;;;;4934129;29;19918;-74
2023/10/16 09:29:34;;;;;;;;;;;16.20;99.90;;;;;;4928696;29;19971;-75
2023/10/16 09:32:02;;;;;;;;;;;15.40;99.90;;;;;;4932446;29;20382;-72
2023/10/16 09:34:28;;;;;;;;;;;14.70;99.90;;;;;;4928795;29;19914;-73
2023/10/16 09:39:40;;;;;;;;;;;14.30;99.90;;;;;;4919273;29;20002;-78
2023/10/16 09:42:11;;;;;;;;;;;14.00;99.90;;;;;;4931222;29;20044;-79
2023/10/16 09:44:41;;;;;;;;;;;14.10;99.90;;;;;;4929062;29;20005;-78
2023/10/16 09:47:25;;;;;;;;;;;14.30;99.90;;;;;;4933174;29;19922;-73
2023/10/16 09:50:00;;;;;;;;;;;14.40;99.90;;;;;;4933149;29;19911;-79
2023/10/16 09:52:27;;;;;;;;;;;14.20;99.90;;;;;;4931266;29;19978;-79
2023/10/16 09:54:54;;;;;;;;;;;14.30;99.90;;;;;;4932959;29;19915;-79
2023/10/16 09:57:22;;;;;;;;;;;14.30;99.90;;;;;;4931811;29;19911;-73
2023/10/16 09:59:54;;;;;;;;;;;14.20;99.90;;;;;;4927258;29;20341;-72
2023/10/16 10:02:19;;;;;;;;;;;14.30;99.90;;;;;;4928376;29;19911;-78
2023/10/16 10:04:53;;;;;;;;;;;14.40;99.90;;;;;;4932545;29;19921;-79
2023/10/16 10:07:20;;;;;;;;;;;14.60;99.90;;;;;;4932568;29;19914;-79
2023/10/16 10:09:49;;;;;;;;;;;14.60;99.90;;;;;;4923775;29;20367;-72
2023/10/16 10:12:27;;;;;;;;;;;14.50;99.90;;;;;;4924442;29;19921;-73
2023/10/16 10:15:14;;;;;;;;;;;14.60;99.90;;;;;;4931050;29;19989;-78
2023/10/16 10:17:41;;;;;;;;;;;14.80;99.90;;;;;;4927864;29;19918;-78
2023/10/16 10:20:09;;;;;;;;;;;14.90;99.90;;;;;;4924599;29;20323;-73
2023/10/16 10:22:35;;;;;;;;;;;14.90;99.90;;;;;;4922559;29;19915;-72
2023/10/16 10:25:09;;;;;;;;;;;14.90;99.90;;;;;;4933987;29;20010;-73
2023/10/16 10:27:41;;;;;;;;;;;15.10;99.90;;;;;;4932129;29;19911;-79
2023/10/16 10:30:10;;;;;;;;;;;15.10;99.90;;;;;;4920786;29;19942;-79
2023/10/16 10:32:36;;;;;;;;;;;15.30;99.90;;;;;;4915342;29;19943;-77
2023/10/16 10:35:27;;;;;;;;;;;15.30;99.90;;;;;;4921071;29;19915;-79
2023/10/16 10:38:07;;;;;;;;;;;15.30;99.90;;;;;;4931233;29;19910;-73
2023/10/16 10:40:33;;;;;;;;;;;15.30;99.90;;;;;;4924416;29;20001;-79
2023/10/16 10:43:02;;;;;;;;;;;15.30;99.90;;;;;;4933248;29;19911;-79
2023/10/16 10:45:34;;;;;;;;;;;15.40;99.90;;;;;;4919608;29;19934;-79
2023/10/16 10:48:17;;;;;;;;;;;15.30;99.90;;;;;;4906819;29;19918;-73
2023/10/16 10:50:46;;;;;;;;;;;15.40;99.90;;;;;;4910513;29;19921;-73
2023/10/16 10:53:13;;;;;;;;;;;15.60;99.90;;;;;;4915731;29;20025;-73
2023/10/16 10:55:55;;;;;;;;;;;15.50;99.90;;;;;;4915940;29;19907;-73
2023/10/16 10:58:23;;;;;;;;;;;15.60;99.90;;;;;;4904577;29;19920;-79
2023/10/16 11:00:50;;;;;;;;;;;15.80;99.90;;;;;;4916369;29;20374;-73
2023/10/16 11:03:41;;;;;;;;;;;16.00;99.90;;;;;;4914477;29;20442;-73
2023/10/16 11:06:15;;;;;;;;;;;15.90;99.90;;;;;;4900583;29;19962;-79
2023/10/16 11:08:41;;;;;;;;;;;16.00;99.90;;;;;;4904766;29;20001;-78
2023/10/16 11:11:10;;;;;;;;;;;16.10;99.90;;;;;;4905608;29;19918;-73
2023/10/16 11:13:43;;;;;;;;;;;16.20;99.90;;;;;;4909916;29;19925;-78
2023/10/16 11:16:09;;;;;;;;;;;16.40;99.90;;;;;;4900215;29;19912;-79
2023/10/16 11:18:37;;;;;;;;;;;16.40;99.90;;;;;;4913554;29;19911;-78
2023/10/16 11:21:06;;;;;;;;;;;16.50;99.90;;;;;;4915569;29;20366;-78
2023/10/16 11:23:38;;;;;;;;;;;16.60;99.90;;;;;;4908045;29;20010;-78
2023/10/16 11:26:05;;;;;;;;;;;16.70;99.90;;;;;;4910586;29;19911;-78
2023/10/16 11:28:35;;;;;;;;;;;16.70;99.90;;;;;;4897811;29;19950;-78
2023/10/16 11:31:01;;;;;;;;;;;16.70;99.90;;;;;;4910667;29;20014;-78
2023/10/16 11:33:27;;;;;;;;;;;16.60;99.90;;;;;;4915575;29;20398;-76
2023/10/16 11:35:58;;;;;;;;;;;16.90;99.90;;;;;;4914983;29;19958;-76
2023/10/16 11:38:29;;;;;;;;;;;16.90;99.90;;;;;;4903887;29;20029;-76
2023/10/16 11:40:56;;;;;;;;;;;16.90;99.90;;;;;;4911140;29;20366;-73
2023/10/16 11:43:22;;;;;;;;;;;17.10;99.90;;;;;;4897088;29;20006;-73
2023/10/16 11:45:56;;;;;;;;;;;17.20;99.90;;;;;;4912461;29;20058;-78
2023/10/16 11:51:05;;;;;;;;;;;17.30;99.90;;;;;;4874920;29;19957;-76
2023/10/16 11:53:31;;;;;;;;;;;17.30;99.90;;;;;;4883107;29;19919;-77
2023/10/16 11:55:57;;;;;;;;;;;17.50;99.90;;;;;;4881982;29;20342;-73
2023/10/16 11:58:23;;;;;;;;;;;17.70;99.90;;;;;;4869775;29;19915;-77
2023/10/16 12:00:57;;;;;;;;;;;17.90;99.90;;;;;;4879495;29;19911;-78
2023/10/16 12:03:26;;;;;;;;;;;18.20;99.90;;;;;;4901272;29;19942;-78
2023/10/16 12:05:55;;;;;;;;;;;18.20;99.90;;;;;;4874692;29;19915;-78
2023/10/16 12:08:21;;;;;;;;;;;18.20;99.90;;;;;;4876373;29;19911;-73
2023/10/16 12:10:47;;;;;;;;;;;18.10;99.90;;;;;;4879114;29;19922;-77
2023/10/16 12:13:13;;;;;;;;;;;18.20;99.90;;;;;;4889611;29;19915;-77
2023/10/16 12:15:40;;;;;;;;;;;18.30;99.90;;;;;;4888709;29;19942;-73
2023/10/16 12:18:09;;;;;;;;;;;18.20;99.90;;;;;;4887262;29;20713;-77
2023/10/16 12:20:37;;;;;;;;;;;18.60;99.90;;;;;;4894907;29;19908;-73
2023/10/16 12:23:04;;;;;;;;;;;18.70;99.90;;;;;;4885163;29;19915;-72
2023/10/16 12:25:29;;;;;;;;;;;18.70;99.90;;;;;;4893363;29;20086;-73
2023/10/16 12:27:55;;;;;;;;;;;18.90;99.90;;;;;;4892245;29;19927;-78
2023/10/16 12:30:20;;;;;;;;;;;19.00;99.90;;;;;;4894292;29;20589;-77
2023/10/16 12:32:46;;;;;;;;;;;18.80;99.90;;;;;;4894213;29;20350;-72
2023/10/16 12:35:12;;;;;;;;;;;19.00;99.90;;;;;;4890804;29;19911;-73
2023/10/16 12:37:41;;;;;;;;;;;18.90;99.90;;;;;;4874853;29;19915;-76
2023/10/16 12:40:27;;;;;;;;;;;18.90;99.90;;;;;;4884898;29;19914;-75
2023/10/16 12:42:55;;;;;;;;;;;19.00;99.90;;;;;;4891289;29;20748;-77
2023/10/16 12:45:24;;;;;;;;;;;19.20;99.90;;;;;;4877368;29;19930;-76
2023/10/16 12:47:54;;;;;;;;;;;19.10;99.90;;;;;;4883972;29;20378;-73
2023/10/16 12:50:23;;;;;;;;;;;19.20;99.90;;;;;;4886050;29;19958;-77
2023/10/16 12:52:54;;;;;;;;;;;19.30;99.90;;;;;;4887198;29;19922;-77
2023/10/16 12:55:20;;;;;;;;;;;19.30;99.90;;;;;;4893708;29;19950;-79
2023/10/16 12:57:46;;;;;;;;;;;19.30;99.90;;;;;;4893134;29;20008;-72
2023/10/16 13:00:16;;;;;;;;;;;19.60;99.90;;;;;;4893642;29;20655;-74
2023/10/16 13:02:45;;;;;;;;;;;19.70;99.90;;;;;;4888875;29;20739;-75
2023/10/16 13:05:14;;;;;;;;;;;19.60;99.90;;;;;;4882078;29;19918;-77
2023/10/16 13:07:44;;;;;;;;;;;19.60;99.90;;;;;;4883207;29;19923;-77
2023/10/16 13:10:14;;;;;;;;;;;19.80;99.90;;;;;;4866173;29;19911;-74
2023/10/16 13:12:41;;;;;;;;;;;19.90;99.90;;;;;;4886571;29;19981;-76
2023/10/16 13:15:08;;;;;;;;;;;20.10;99.90;;;;;;4873931;29;19919;-74
2023/10/16 13:17:34;;;;;;;;;;;20.10;99.60;;;;;;4885736;29;19950;-77
2023/10/16 13:20:00;;;;;;;;;;;19.80;99.90;;;;;;4891448;29;19915;-74
2023/10/16 13:22:25;;;;;;;;;;;19.70;99.90;;;;;;4886085;29;19957;-76
2023/10/16 13:24:54;;;;;;;;;;;19.70;99.90;;;;;;4892960;29;20573;-74
2023/10/16 13:27:21;;;;;;;;;;;19.90;99.90;;;;;;4888523;29;19935;-76
2023/10/16 13:29:47;;;;;;;;;;;19.70;99.90;;;;;;4881053;29;20634;-76
2023/10/16 13:32:13;;;;;;;;;;;20.00;99.90;;;;;;4887482;29;19915;-73
2023/10/16 13:34:38;;;;;;;;;;;20.10;99.90;;;;;;4884416;29;19931;-74
2023/10/16 13:37:10;;;;;;;;;;;20.20;99.90;;;;;;4888522;29;19915;-77
2023/10/16 13:39:38;;;;;;;;;;;20.50;99.90;;;;;;4888183;29;19911;-74
2023/10/16 13:42:08;;;;;;;;;;;20.50;99.70;;;;;;4906330;29;19919;-76
2023/10/16 13:44:35;;;;;;;;;;;20.50;99.80;;;;;;4902627;29;20010;-76
2023/10/16 13:47:04;;;;;;;;;;;20.50;99.60;;;;;;4930181;29;19926;-76
2023/10/16 13:49:31;;;;;;;;;;;20.50;99.60;;;;;;4936332;29;19982;-76
2023/10/16 13:51:56;;;;;;;;;;;20.60;98.90;;;;;;4928106;29;19911;-76
2023/10/16 13:54:23;;;;;;;;;;;20.50;98.80;;;;;;4934035;29;19941;-76
2023/10/16 13:56:50;;;;;;;;;;;20.60;98.00;;;;;;4936914;29;20290;-76
2023/10/16 13:59:18;;;;;;;;;;;20.40;98.10;;;;;;4936433;29;19911;-76
2023/10/16 14:01:43;;;;;;;;;;;20.50;98.90;;;;;;4931411;29;19961;-76
2023/10/16 14:04:16;;;;;;;;;;;20.40;98.50;;;;;;4928770;29;19919;-76
2023/10/16 14:06:51;;;;;;;;;;;20.30;98.60;;;;;;4931419;29;19922;-73
2023/10/16 14:09:20;;;;;;;;;;;20.20;98.50;;;;;;4926728;29;19911;-76
2023/10/16 14:11:49;;;;;;;;;;;20.00;98.50;;;;;;4923569;29;20001;-76
2023/10/16 14:14:21;;;;;;;;;;;19.90;99.30;;;;;;4931393;29;19926;-76
2023/10/16 14:16:51;;;;;;;;;;;19.90;98.80;;;;;;4923043;29;19922;-73
2023/10/16 14:19:22;;;;;;;;;;;20.10;99.10;;;;;;4930167;29;20396;-73
2023/10/16 14:21:48;;;;;;;;;;;20.40;98.50;;;;;;4936232;29;19915;-76
2023/10/16 14:24:17;;;;;;;;;;;20.50;98.00;;;;;;4932967;29;19915;-76
2023/10/16 14:26:49;;;;;;;;;;;20.60;98.10;;;;;;4934454;29;19922;-73
2023/10/16 14:29:16;;;;;;;;;;;20.90;97.70;;;;;;4935203;29;19914;-76
2023/10/16 14:31:46;;;;;;;;;;;20.70;97.10;;;;;;4934968;29;19907;-76
2023/10/16 14:34:18;;;;;;;;;;;20.90;97.40;;;;;;4934067;29;19925;-73
2023/10/16 14:36:46;;;;;;;;;;;20.80;96.70;;;;;;4930759;29;19921;-76
2023/10/16 14:39:14;;;;;;;;;;;20.70;96.90;;;;;;4933701;29;19918;-73
2023/10/16 14:41:44;;;;;;;;;;;20.70;97.10;;;;;;4934641;29;19907;-77
2023/10/16 14:44:12;;;;;;;;;;;20.60;96.50;;;;;;4927000;29;19922;-77
2023/10/16 14:46:38;;;;;;;;;;;20.70;96.70;;;;;;4923358;29;19945;-76
2023/10/16 14:49:08;;;;;;;;;;;20.90;96.70;;;;;;4946231;29;19997;-77
2023/10/16 14:51:40;;;;;;;;;;;21.20;96.50;;;;;;4945678;29;20001;-77
2023/10/16 14:54:06;;;;;;;;;;;21.50;96.00;;;;;;4934764;29;20017;-73
2023/10/16 14:56:36;;;;;;;;;;;21.40;96.20;;;;;;4942666;29;19911;-74
2023/10/16 14:59:30;;;;;;;;;;;21.40;96.00;;;;;;4922342;29;19911;-74
2023/10/16 15:01:58;;;;;;;;;;;21.70;95.50;;;;;;4937648;29;20379;-78
2023/10/16 15:04:23;;;;;;;;;;;22.00;94.90;;;;;;4945561;29;19907;-78
2023/10/16 15:06:49;;;;;;;;;;;22.20;95.20;;;;;;4954274;29;19907;-78
2023/10/16 15:09:18;;;;;;;;;;;21.90;95.40;;;;;;4950497;29;20283;-74
2023/10/16 15:11:45;;;;;;;;;;;21.80;94.90;;;;;;4942707;29;19911;-74
2023/10/16 15:14:14;;;;;;;;;;;21.70;95.10;;;;;;4943136;29;19914;-74
2023/10/16 15:16:40;;;;;;;;;;;21.80;95.00;;;;;;4941372;29;19953;-78
2023/10/16 15:19:08;;;;;;;;;;;22.00;95.20;;;;;;4944955;29;19945;-78
2023/10/16 15:21:38;;;;;;;;;;;22.60;94.50;;;;;;4938402;29;20322;-74
2023/10/16 15:24:04;;;;;;;;;;;23.10;94.10;;;;;;4937359;29;20263;-74
2023/10/16 15:26:33;;;;;;;;;;;23.20;94.10;;;;;;4935867;29;19970;-78
2023/10/16 15:29:00;;;;;;;;;;;23.30;93.50;;;;;;4934028;29;19931;-78
2023/10/16 15:31:26;;;;;;;;;;;23.20;93.50;;;;;;4935137;29;19914;-78
2023/10/16 15:33:53;;;;;;;;;;;23.40;93.20;;;;;;4944377;29;20370;-78
2023/10/16 15:36:18;;;;;;;;;;;23.30;93.40;;;;;;4934941;29;20382;-74
2023/10/16 15:38:45;;;;;;;;;;;23.10;93.50;;;;;;4934694;29;19917;-74
2023/10/16 15:41:13;;;;;;;;;;;22.60;94.00;;;;;;4934731;29;19906;-77
2023/10/16 15:43:42;;;;;;;;;;;22.10;94.20;;;;;;4935519;29;20285;-78
2023/10/16 15:46:36;;;;;;;;;;;21.60;95.10;;;;;;4935112;29;20398;-74
2023/10/16 15:49:01;;;;;;;;;;;21.20;95.80;;;;;;4932861;29;19915;-73
2023/10/16 15:51:30;;;;;;;;;;;20.80;96.80;;;;;;4935799;29;19945;-74
2023/10/16 15:53:55;;;;;;;;;;;20.30;97.30;;;;;;4938441;29;19910;-73
2023/10/16 15:56:24;;;;;;;;;;;19.90;97.70;;;;;;4938957;29;19911;-78
2023/10/16 15:58:50;;;;;;;;;;;19.60;98.20;;;;;;4939260;29;20298;-77
2023/10/16 16:01:16;;;;;;;;;;;19.40;98.80;;;;;;4939427;29;19913;-74
2023/10/16 16:03:42;;;;;;;;;;;19.10;99.40;;;;;;4943852;29;19915;-74
2023/10/16 16:06:11;;;;;;;;;;;18.90;99.90;;;;;;4925497;29;19922;-76
2023/10/16 16:08:40;;;;;;;;;;;18.80;99.90;;;;;;4920315;29;19907;-74
2023/10/16 16:11:13;;;;;;;;;;;18.60;99.90;;;;;;4936642;29;20339;-77
2023/10/16 16:13:45;;;;;;;;;;;18.50;99.90;;;;;;4920771;29;19918;-73
2023/10/16 16:16:10;;;;;;;;;;;18.30;99.90;;;;;;4920046;29;19962;-73
2023/10/16 16:18:36;;;;;;;;;;;18.10;99.90;;;;;;4920611;29;19907;-73
2023/10/16 16:21:04;;;;;;;;;;;18.00;99.90;;;;;;4920207;29;19907;-77
2023/10/16 16:23:33;;;;;;;;;;;17.80;99.90;;;;;;4919907;29;19907;-76
2023/10/16 16:25:59;;;;;;;;;;;17.80;99.90;;;;;;4920194;29;19907;-77
2023/10/16 16:28:25;;;;;;;;;;;17.70;99.90;;;;;;4920355;29;20279;-73
2023/10/16 16:30:50;;;;;;;;;;;17.60;99.90;;;;;;4920442;29;20291;-77